createdAt,value
2018-02-10T00:00:52.303Z,0
2018-02-10T00:01:52.002Z,0
2018-02-10T00:02:51.488Z,0
2018-02-10T00:03:53.648Z,0
2018-02-10T00:04:51.971Z,0
2018-02-10T00:05:51.720Z,0
2018-02-10T00:06:51.975Z,0
2018-02-10T00:07:51.946Z,0
2018-02-10T00:08:51.683Z,0
2018-02-10T00:09:51.934Z,0
2018-02-10T00:10:51.679Z,0
2018-02-10T00:11:51.696Z,0
2018-02-10T00:12:51.952Z,0
2018-02-10T00:13:51.390Z,0
2018-02-10T00:14:51.883Z,0
2018-02-10T00:15:51.866Z,0
2018-02-10T00:16:51.854Z,0
2018-02-10T00:17:51.860Z,0
2018-02-10T00:18:51.096Z,0
2018-02-10T00:19:51.334Z,0
2018-02-10T00:20:52.077Z,0
2018-02-10T00:21:52.063Z,0
2018-02-10T00:22:51.556Z,0
2018-02-10T00:23:51.543Z,0
2018-02-10T00:24:51.033Z,0
2018-02-10T00:25:51.568Z,0
2018-02-10T00:26:51.271Z,0
2018-02-10T00:27:51.509Z,0
2018-02-10T00:28:51.243Z,0
2018-02-10T00:29:51.737Z,0
2018-02-10T00:30:51.484Z,0
2018-02-10T00:31:52.143Z,0
2018-02-10T00:32:51.463Z,0
2018-02-10T00:33:51.194Z,0
2018-02-10T00:34:55.151Z,0
2018-02-10T00:35:51.187Z,0
2018-02-10T00:36:51.448Z,0
2018-02-10T00:37:51.670Z,0
2018-02-10T00:38:51.664Z,0
2018-02-10T00:39:51.408Z,0
2018-02-10T00:40:51.644Z,0
2018-02-10T00:41:51.622Z,0
2018-02-10T00:42:51.617Z,0
2018-02-10T00:43:51.689Z,0
2018-02-10T00:44:51.846Z,0
2018-02-10T00:45:51.348Z,0
2018-02-10T00:46:51.321Z,0
2018-02-10T00:47:51.318Z,0
2018-02-10T00:48:51.304Z,0
2018-02-10T00:49:51.555Z,0
2018-02-10T00:50:51.290Z,0
2018-02-10T00:51:51.529Z,0
2018-02-10T00:52:51.774Z,0
2018-02-10T00:53:50.762Z,0
2018-02-10T00:54:51.637Z,0
2018-02-10T00:55:51.075Z,0
2018-02-10T00:56:51.500Z,0
2018-02-10T00:57:51.496Z,0
2018-02-10T00:58:51.459Z,0
2018-02-10T00:59:50.715Z,0
2018-02-10T01:00:51.464Z,0
2018-02-10T01:01:50.692Z,0
2018-02-10T01:02:51.177Z,0
2018-02-10T01:03:51.625Z,0
2018-02-10T01:04:52.323Z,0
2018-02-10T01:05:51.117Z,0
2018-02-10T01:06:51.576Z,0
2018-02-10T01:07:51.502Z,0
2018-02-10T01:08:51.127Z,0
2018-02-10T01:09:51.111Z,0
2018-02-10T01:10:51.104Z,0
2018-02-10T01:11:51.117Z,0
2018-02-10T01:12:51.080Z,0
2018-02-10T01:13:50.579Z,0
2018-02-10T01:14:51.315Z,0
2018-02-10T01:15:51.568Z,0
2018-02-10T01:16:51.054Z,0
2018-02-10T01:17:50.780Z,0
2018-02-10T01:18:51.019Z,0
2018-02-10T01:19:51.007Z,0
2018-02-10T01:20:51.010Z,0
2018-02-10T01:21:51.507Z,0
2018-02-10T01:22:51.495Z,0
2018-02-10T01:23:50.725Z,0
2018-02-10T01:24:50.730Z,0
2018-02-10T01:25:50.742Z,0
2018-02-10T01:26:51.208Z,0
2018-02-10T01:27:50.948Z,0
2018-02-10T01:28:50.935Z,0
2018-02-10T01:29:50.920Z,0
2018-02-10T01:30:50.947Z,0
2018-02-10T01:31:51.168Z,0
2018-02-10T01:32:50.910Z,0
2018-02-10T01:33:51.133Z,0
2018-02-10T01:34:53.539Z,0
2018-02-10T01:35:51.205Z,0
2018-02-10T01:36:50.629Z,0
2018-02-10T01:37:50.865Z,0
2018-02-10T01:38:51.100Z,0
2018-02-10T01:39:51.151Z,0
2018-02-10T01:40:51.077Z,0
2018-02-10T01:41:50.840Z,0
2018-02-10T01:42:50.542Z,0
2018-02-10T01:43:51.052Z,0
2018-02-10T01:44:51.061Z,0
2018-02-10T01:45:50.283Z,0
2018-02-10T01:46:50.519Z,0
2018-02-10T01:47:50.499Z,0
2018-02-10T01:48:50.985Z,0
2018-02-10T01:49:51.239Z,0
2018-02-10T01:50:50.714Z,0
2018-02-10T01:51:50.708Z,0
2018-02-10T01:52:50.760Z,0
2018-02-10T01:53:50.960Z,0
2018-02-10T01:54:50.688Z,0
2018-02-10T01:55:50.512Z,0
2018-02-10T01:56:50.917Z,0
2018-02-10T01:57:50.663Z,0
2018-02-10T01:58:50.905Z,0
2018-02-10T01:59:50.918Z,0
2018-02-10T02:00:50.678Z,0
2018-02-10T02:01:50.627Z,0
2018-02-10T02:02:50.596Z,0
2018-02-10T02:03:50.870Z,0
2018-02-10T02:04:53.796Z,0
2018-02-10T02:05:50.329Z,0
2018-02-10T02:06:50.573Z,0
2018-02-10T02:07:51.068Z,0
2018-02-10T02:08:51.064Z,0
2018-02-10T02:09:51.043Z,0
2018-02-10T02:10:51.587Z,0
2018-02-10T02:11:50.537Z,0
2018-02-10T02:12:50.758Z,0
2018-02-10T02:13:50.501Z,0
2018-02-10T02:14:50.250Z,0
2018-02-10T02:15:50.728Z,0
2018-02-10T02:16:50.717Z,0
2018-02-10T02:17:50.464Z,0
2018-02-10T02:18:50.978Z,0
2018-02-10T02:19:50.745Z,0
2018-02-10T02:20:50.434Z,0
2018-02-10T02:21:50.426Z,0
2018-02-10T02:22:50.430Z,0
2018-02-10T02:23:50.658Z,0
2018-02-10T02:24:50.915Z,0
2018-02-10T02:25:50.389Z,0
2018-02-10T02:26:50.376Z,0
2018-02-10T02:27:50.372Z,0
2018-02-10T02:28:50.099Z,0
2018-02-10T02:29:50.100Z,0
2018-02-10T02:30:50.337Z,0
2018-02-10T02:31:50.646Z,0
2018-02-10T02:32:50.824Z,0
2018-02-10T02:33:50.568Z,0
2018-02-10T02:34:50.321Z,0
2018-02-10T02:35:52.085Z,0
2018-02-10T02:36:50.285Z,0
2018-02-10T02:37:50.278Z,0
2018-02-10T02:38:50.863Z,0
2018-02-10T02:39:50.256Z,0
2018-02-10T02:40:50.275Z,0
2018-02-10T02:41:50.238Z,0
2018-02-10T02:42:50.231Z,0
2018-02-10T02:43:50.481Z,0
2018-02-10T02:44:50.456Z,0
2018-02-10T02:45:50.470Z,0
2018-02-10T02:46:50.457Z,0
2018-02-10T02:47:50.186Z,0
2018-02-10T02:48:50.473Z,0
2018-02-10T02:49:50.419Z,0
2018-02-10T02:50:50.152Z,0
2018-02-10T02:51:50.403Z,0
2018-02-10T02:52:50.392Z,0
2018-02-10T02:53:50.374Z,0
2018-02-10T02:54:50.119Z,0
2018-02-10T02:55:50.109Z,0
2018-02-10T02:56:50.093Z,0
2018-02-10T02:57:50.591Z,0
2018-02-10T02:58:50.592Z,0
2018-02-10T02:59:49.822Z,0
2018-02-10T03:00:50.113Z,0
2018-02-10T03:01:50.567Z,0
2018-02-10T03:02:50.051Z,0
2018-02-10T03:03:50.033Z,0
2018-02-10T03:04:49.779Z,0
2018-02-10T03:05:50.312Z,0
2018-02-10T03:06:50.266Z,0
2018-02-10T03:07:50.316Z,0
2018-02-10T03:08:50.270Z,0
2018-02-10T03:09:50.475Z,0
2018-02-10T03:10:49.972Z,0
2018-02-10T03:11:50.220Z,0
2018-02-10T03:12:49.695Z,0
2018-02-10T03:13:49.940Z,0
2018-02-10T03:14:50.002Z,0
2018-02-10T03:15:49.925Z,0
2018-02-10T03:16:50.170Z,0
2018-02-10T03:17:50.157Z,0
2018-02-10T03:18:50.154Z,0
2018-02-10T03:19:49.880Z,0
2018-02-10T03:20:50.131Z,0
2018-02-10T03:21:50.112Z,0
2018-02-10T03:22:49.870Z,0
2018-02-10T03:23:49.851Z,0
2018-02-10T03:24:49.828Z,0
2018-02-10T03:25:50.098Z,0
2018-02-10T03:26:49.809Z,0
2018-02-10T03:27:50.050Z,0
2018-02-10T03:28:50.057Z,0
2018-02-10T03:29:50.040Z,0
2018-02-10T03:30:49.540Z,0
2018-02-10T03:31:49.773Z,0
2018-02-10T03:32:49.255Z,0
2018-02-10T03:33:49.750Z,0
2018-02-10T03:34:50.253Z,0
2018-02-10T03:35:49.931Z,0
2018-02-10T03:36:49.746Z,0
2018-02-10T03:37:49.714Z,0
2018-02-10T03:38:49.953Z,0
2018-02-10T03:39:49.705Z,0
2018-02-10T03:40:49.451Z,0
2018-02-10T03:41:49.430Z,0
2018-02-10T03:42:49.670Z,0
2018-02-10T03:43:49.647Z,0
2018-02-10T03:44:49.401Z,0
2018-02-10T03:45:49.395Z,0
2018-02-10T03:46:50.679Z,0
2018-02-10T03:47:50.127Z,0
2018-02-10T03:48:49.649Z,0
2018-02-10T03:49:49.095Z,0
2018-02-10T03:50:49.596Z,0
2018-02-10T03:51:50.888Z,0
2018-02-10T03:52:49.837Z,0
2018-02-10T03:53:50.060Z,0
2018-02-10T03:54:49.558Z,0
2018-02-10T03:55:49.796Z,0
2018-02-10T03:56:49.287Z,0
2018-02-10T03:57:49.529Z,0
2018-02-10T03:58:49.533Z,0
2018-02-10T03:59:50.012Z,0
2018-02-10T04:00:49.750Z,0
2018-02-10T04:01:49.737Z,0
2018-02-10T04:02:49.730Z,0
2018-02-10T04:03:49.213Z,0
2018-02-10T04:04:49.718Z,0
2018-02-10T04:05:49.765Z,0
2018-02-10T04:06:51.295Z,0
2018-02-10T04:07:49.691Z,0
2018-02-10T04:08:49.924Z,0
2018-02-10T04:09:49.663Z,0
2018-02-10T04:10:48.902Z,0
2018-02-10T04:11:49.143Z,0
2018-02-10T04:12:49.634Z,0
2018-02-10T04:13:49.371Z,0
2018-02-10T04:14:49.373Z,0
2018-02-10T04:15:49.606Z,0
2018-02-10T04:16:49.366Z,0
2018-02-10T04:17:49.588Z,0
2018-02-10T04:18:49.328Z,0
2018-02-10T04:19:49.315Z,0
2018-02-10T04:20:48.824Z,0
2018-02-10T04:21:49.608Z,0
2018-02-10T04:22:49.549Z,0
2018-02-10T04:23:49.546Z,0
2018-02-10T04:24:49.272Z,0
2018-02-10T04:25:49.013Z,0
2018-02-10T04:26:49.508Z,0
2018-02-10T04:27:48.991Z,0
2018-02-10T04:28:49.484Z,0
2018-02-10T04:29:48.980Z,0
2018-02-10T04:30:49.524Z,0
2018-02-10T04:31:49.210Z,0
2018-02-10T04:32:49.195Z,0
2018-02-10T04:33:48.945Z,0
2018-02-10T04:34:49.681Z,0
2018-02-10T04:35:49.168Z,0
2018-02-10T04:36:50.457Z,0
2018-02-10T04:37:49.417Z,0
2018-02-10T04:38:48.889Z,0
2018-02-10T04:39:49.630Z,0
2018-02-10T04:40:49.439Z,0
2018-02-10T04:41:49.358Z,0
2018-02-10T04:42:49.359Z,0
2018-02-10T04:43:49.098Z,0
2018-02-10T04:44:49.080Z,0
2018-02-10T04:45:49.585Z,0
2018-02-10T04:46:48.557Z,0
2018-02-10T04:47:49.059Z,0
2018-02-10T04:48:49.054Z,0
2018-02-10T04:49:48.842Z,0
2018-02-10T04:50:48.776Z,0
2018-02-10T04:51:49.027Z,0
2018-02-10T04:52:48.763Z,0
2018-02-10T04:53:49.013Z,0
2018-02-10T04:54:48.988Z,0
2018-02-10T04:55:49.231Z,0
2018-02-10T04:56:48.733Z,0
2018-02-10T04:57:49.216Z,0
2018-02-10T04:58:49.217Z,0
2018-02-10T04:59:49.209Z,0
2018-02-10T05:00:49.184Z,0
2018-02-10T05:01:49.178Z,0
2018-02-10T05:02:49.172Z,0
2018-02-10T05:03:49.155Z,0
2018-02-10T05:04:48.906Z,0
2018-02-10T05:05:48.914Z,0
2018-02-10T05:06:51.973Z,0
2018-02-10T05:07:48.360Z,0
2018-02-10T05:08:48.863Z,0
2018-02-10T05:09:49.093Z,0
2018-02-10T05:10:48.839Z,0
2018-02-10T05:11:48.842Z,0
2018-02-10T05:12:48.565Z,0
2018-02-10T05:13:48.808Z,0
2018-02-10T05:14:49.051Z,0
2018-02-10T05:15:48.797Z,0
2018-02-10T05:16:48.526Z,0
2018-02-10T05:17:49.017Z,0
2018-02-10T05:18:48.791Z,0
2018-02-10T05:19:48.779Z,0
2018-02-10T05:20:48.989Z,0
2018-02-10T05:21:48.481Z,0
2018-02-10T05:22:48.741Z,0
2018-02-10T05:23:48.730Z,0
2018-02-10T05:24:48.728Z,0
2018-02-10T05:25:48.457Z,0
2018-02-10T05:26:48.690Z,0
2018-02-10T05:27:49.003Z,0
2018-02-10T05:28:48.681Z,0
2018-02-10T05:29:48.916Z,0
2018-02-10T05:30:48.160Z,0
2018-02-10T05:31:49.139Z,0
2018-02-10T05:32:49.143Z,0
2018-02-10T05:33:48.880Z,0
2018-02-10T05:34:48.870Z,0
2018-02-10T05:35:48.927Z,0
2018-02-10T05:36:48.858Z,0
2018-02-10T05:37:48.593Z,0
2018-02-10T05:38:48.847Z,0
2018-02-10T05:39:48.562Z,0
2018-02-10T05:40:48.622Z,0
2018-02-10T05:41:48.828Z,0
2018-02-10T05:42:48.532Z,0
2018-02-10T05:43:48.534Z,0
2018-02-10T05:44:48.784Z,0
2018-02-10T05:45:48.502Z,0
2018-02-10T05:46:49.017Z,0
2018-02-10T05:47:48.816Z,0
2018-02-10T05:48:48.746Z,0
2018-02-10T05:49:48.776Z,0
2018-02-10T05:50:48.269Z,0
2018-02-10T05:51:48.457Z,0
2018-02-10T05:52:48.699Z,0
2018-02-10T05:53:48.446Z,0
2018-02-10T05:54:48.682Z,0
2018-02-10T05:55:48.545Z,0
2018-02-10T05:56:47.902Z,0
2018-02-10T05:57:48.394Z,0
2018-02-10T05:58:48.134Z,0
2018-02-10T05:59:48.634Z,0
2018-02-10T06:00:48.875Z,0
2018-02-10T06:01:48.635Z,0
2018-02-10T06:02:48.599Z,0
2018-02-10T06:03:48.338Z,0
2018-02-10T06:04:48.328Z,0
2018-02-10T06:05:48.325Z,0
2018-02-10T06:06:48.564Z,0
2018-02-10T06:07:51.237Z,0
2018-02-10T06:08:48.285Z,0
2018-02-10T06:09:48.792Z,0
2018-02-10T06:10:48.594Z,0
2018-02-10T06:11:48.014Z,0
2018-02-10T06:12:48.504Z,0
2018-02-10T06:13:47.990Z,0
2018-02-10T06:14:48.235Z,0
2018-02-10T06:15:48.761Z,0
2018-02-10T06:16:48.457Z,0
2018-02-10T06:17:48.202Z,0
2018-02-10T06:18:48.447Z,0
2018-02-10T06:19:48.710Z,0
2018-02-10T06:20:48.208Z,0
2018-02-10T06:21:47.923Z,0
2018-02-10T06:22:49.471Z,0
2018-02-10T06:23:48.153Z,0
2018-02-10T06:24:48.139Z,0
2018-02-10T06:25:48.636Z,0
2018-02-10T06:26:47.863Z,0
2018-02-10T06:27:48.363Z,0
2018-02-10T06:28:48.352Z,0
2018-02-10T06:29:47.845Z,0
2018-02-10T06:30:47.837Z,0
2018-02-10T06:31:48.341Z,0
2018-02-10T06:32:48.072Z,0
2018-02-10T06:33:48.303Z,0
2018-02-10T06:34:48.043Z,0
2018-02-10T06:35:48.534Z,0
2018-02-10T06:36:48.023Z,0
2018-02-10T06:37:50.084Z,0
2018-02-10T06:38:48.001Z,0
2018-02-10T06:39:47.995Z,0
2018-02-10T06:40:47.988Z,0
2018-02-10T06:41:47.976Z,0
2018-02-10T06:42:47.724Z,0
2018-02-10T06:43:48.470Z,0
2018-02-10T06:44:48.203Z,0
2018-02-10T06:45:47.954Z,0
2018-02-10T06:46:47.934Z,0
2018-02-10T06:47:48.432Z,0
2018-02-10T06:48:48.174Z,5
2018-02-10T06:49:48.157Z,5
2018-02-10T06:50:48.209Z,5
2018-02-10T06:51:47.638Z,5
2018-02-10T06:52:51.134Z,5
2018-02-10T06:53:47.370Z,5
2018-02-10T06:54:47.610Z,5
2018-02-10T06:55:47.899Z,5
2018-02-10T06:56:47.597Z,5
2018-02-10T06:57:47.836Z,5
2018-02-10T06:58:47.831Z,5
2018-02-10T06:59:47.806Z,5
2018-02-10T07:00:48.128Z,5
2018-02-10T07:01:48.133Z,5
2018-02-10T07:02:47.793Z,10
2018-02-10T07:03:47.774Z,10
2018-02-10T07:04:47.761Z,10
2018-02-10T07:05:47.754Z,10
2018-02-10T07:06:48.288Z,10
2018-02-10T07:07:48.243Z,10
2018-02-10T07:08:48.229Z,10
2018-02-10T07:09:47.969Z,10
2018-02-10T07:10:47.697Z,10
2018-02-10T07:11:47.440Z,10
2018-02-10T07:12:47.689Z,10
2018-02-10T07:13:47.673Z,15
2018-02-10T07:14:47.163Z,15
2018-02-10T07:15:47.648Z,15
2018-02-10T07:16:47.897Z,15
2018-02-10T07:17:47.633Z,15
2018-02-10T07:18:48.134Z,15
2018-02-10T07:19:48.121Z,15
2018-02-10T07:20:47.870Z,15
2018-02-10T07:21:47.855Z,15
2018-02-10T07:22:48.086Z,15
2018-02-10T07:23:49.435Z,15
2018-02-10T07:24:47.817Z,15
2018-02-10T07:25:47.589Z,15
2018-02-10T07:26:48.057Z,15
2018-02-10T07:27:47.536Z,15
2018-02-10T07:28:47.541Z,15
2018-02-10T07:29:47.772Z,15
2018-02-10T07:30:47.268Z,20
2018-02-10T07:31:47.812Z,20
2018-02-10T07:32:47.574Z,20
2018-02-10T07:33:47.497Z,20
2018-02-10T07:34:47.738Z,20
2018-02-10T07:35:47.465Z,20
2018-02-10T07:36:47.958Z,20
2018-02-10T07:37:47.706Z,20
2018-02-10T07:38:49.699Z,20
2018-02-10T07:39:47.187Z,20
2018-02-10T07:40:47.679Z,20
2018-02-10T07:41:47.422Z,20
2018-02-10T07:42:47.404Z,20
2018-02-10T07:43:47.641Z,20
2018-02-10T07:44:47.646Z,20
2018-02-10T07:45:47.385Z,20
2018-02-10T07:46:47.386Z,20
2018-02-10T07:47:47.620Z,20
2018-02-10T07:48:47.099Z,20
2018-02-10T07:49:47.601Z,20
2018-02-10T07:50:47.590Z,20
2018-02-10T07:51:47.328Z,20
2018-02-10T07:52:47.069Z,25
2018-02-10T07:53:47.815Z,25
2018-02-10T07:54:47.807Z,25
2018-02-10T07:55:47.827Z,25
2018-02-10T07:56:47.535Z,25
2018-02-10T07:57:47.534Z,25
2018-02-10T07:58:47.055Z,25
2018-02-10T07:59:47.322Z,30
2018-02-10T08:00:47.497Z,25
2018-02-10T08:01:47.523Z,25
2018-02-10T08:02:46.973Z,25
2018-02-10T08:03:47.468Z,25
2018-02-10T08:04:46.963Z,25
2018-02-10T08:05:48.654Z,25
2018-02-10T08:06:47.445Z,20
2018-02-10T08:07:47.694Z,20
2018-02-10T08:08:48.527Z,20
2018-02-10T08:09:46.967Z,20
2018-02-10T08:10:46.913Z,20
2018-02-10T08:11:46.892Z,20
2018-02-10T08:12:47.173Z,20
2018-02-10T08:13:47.378Z,25
2018-02-10T08:14:47.375Z,25
2018-02-10T08:15:47.364Z,25
2018-02-10T08:16:46.846Z,30
2018-02-10T08:17:47.091Z,30
2018-02-10T08:18:47.334Z,35
2018-02-10T08:19:47.337Z,35
2018-02-10T08:20:47.319Z,35
2018-02-10T08:21:47.050Z,40
2018-02-10T08:22:47.047Z,40
2018-02-10T08:23:47.294Z,40
2018-02-10T08:24:47.034Z,45
2018-02-10T08:25:47.322Z,45
2018-02-10T08:26:47.270Z,45
2018-02-10T08:27:47.493Z,45
2018-02-10T08:28:46.987Z,45
2018-02-10T08:29:46.725Z,50
2018-02-10T08:30:47.294Z,50
2018-02-10T08:31:47.229Z,55
2018-02-10T08:32:46.953Z,55
2018-02-10T08:33:47.250Z,60
2018-02-10T08:34:47.180Z,60
2018-02-10T08:35:46.956Z,60
2018-02-10T08:36:46.664Z,60
2018-02-10T08:38:19.013Z,60
2018-02-10T08:38:46.641Z,60
2018-02-10T08:39:52.343Z,55
2018-02-10T08:40:47.393Z,55
2018-02-10T08:41:47.117Z,65
2018-02-10T08:42:46.854Z,60
2018-02-10T08:43:47.101Z,60
2018-02-10T08:44:46.835Z,65
2018-02-10T08:45:46.651Z,70
2018-02-10T08:46:47.076Z,70
2018-02-10T08:47:47.066Z,75
2018-02-10T08:48:47.312Z,80
2018-02-10T08:49:46.796Z,80
2018-02-10T08:50:46.793Z,85
2018-02-10T08:51:46.522Z,85
2018-02-10T08:52:46.772Z,90
2018-02-10T08:53:47.018Z,90
2018-02-10T08:54:47.298Z,90
2018-02-10T08:55:46.546Z,95
2018-02-10T08:56:46.784Z,100
2018-02-10T08:57:46.986Z,100
2018-02-10T08:58:46.978Z,105
2018-02-10T08:59:46.726Z,105
2018-02-10T09:00:46.693Z,105
2018-02-10T09:01:46.685Z,100
2018-02-10T09:02:46.940Z,100
2018-02-10T09:03:46.921Z,105
2018-02-10T09:04:46.919Z,95
2018-02-10T09:05:46.910Z,100
2018-02-10T09:06:46.658Z,100
2018-02-10T09:07:46.668Z,105
2018-02-10T09:08:46.620Z,105
2018-02-10T09:09:48.983Z,105
2018-02-10T09:10:47.119Z,105
2018-02-10T09:11:46.882Z,105
2018-02-10T09:12:47.104Z,105
2018-02-10T09:13:46.595Z,105
2018-02-10T09:14:47.075Z,105
2018-02-10T09:15:46.819Z,110
2018-02-10T09:16:46.570Z,110
2018-02-10T09:17:47.052Z,115
2018-02-10T09:18:46.798Z,115
2018-02-10T09:19:46.781Z,115
2018-02-10T09:20:47.045Z,110
2018-02-10T09:21:46.775Z,110
2018-02-10T09:22:46.510Z,110
2018-02-10T09:23:46.753Z,110
2018-02-10T09:24:46.749Z,110
2018-02-10T09:25:46.299Z,115
2018-02-10T09:26:46.480Z,120
2018-02-10T09:27:46.214Z,125
2018-02-10T09:28:46.452Z,130
2018-02-10T09:29:46.455Z,130
2018-02-10T09:30:46.446Z,130
2018-02-10T09:31:46.456Z,130
2018-02-10T09:32:46.687Z,130
2018-02-10T09:33:46.926Z,130
2018-02-10T09:34:46.919Z,125
2018-02-10T09:35:46.650Z,120
2018-02-10T09:36:46.647Z,120
2018-02-10T09:37:46.401Z,115
2018-02-10T09:38:46.624Z,110
2018-02-10T09:39:46.636Z,105
2018-02-10T09:40:51.218Z,100
2018-02-10T09:41:46.851Z,100
2018-02-10T09:42:46.596Z,100
2018-02-10T09:43:46.581Z,100
2018-02-10T09:44:46.322Z,95
2018-02-10T09:45:46.326Z,95
2018-02-10T09:46:46.565Z,90
2018-02-10T09:47:46.295Z,90
2018-02-10T09:48:46.549Z,90
2018-02-10T09:49:46.528Z,85
2018-02-10T09:50:46.771Z,80
2018-02-10T09:51:46.273Z,80
2018-02-10T09:52:45.998Z,75
2018-02-10T09:53:46.244Z,70
2018-02-10T09:54:46.236Z,70
2018-02-10T09:55:45.742Z,70
2018-02-10T09:56:46.217Z,70
2018-02-10T09:57:46.214Z,75
2018-02-10T09:58:45.958Z,80
2018-02-10T09:59:45.942Z,85
2018-02-10T10:00:46.436Z,85
2018-02-10T10:01:46.545Z,80
2018-02-10T10:02:46.422Z,80
2018-02-10T10:03:46.663Z,75
2018-02-10T10:04:46.149Z,75
2018-02-10T10:05:46.197Z,80
2018-02-10T10:06:45.644Z,75
2018-02-10T10:07:46.638Z,70
2018-02-10T10:08:46.373Z,65
2018-02-10T10:09:45.875Z,60
2018-02-10T10:10:47.961Z,60
2018-02-10T10:11:46.085Z,60
2018-02-10T10:12:45.833Z,60
2018-02-10T10:13:46.081Z,60
2018-02-10T10:14:46.558Z,60
2018-02-10T10:15:46.052Z,60
2018-02-10T10:16:46.047Z,65
2018-02-10T10:17:46.298Z,70
2018-02-10T10:18:46.290Z,75
2018-02-10T10:19:46.268Z,85
2018-02-10T10:20:46.058Z,95
2018-02-10T10:21:46.256Z,100
2018-02-10T10:22:45.741Z,110
2018-02-10T10:23:46.004Z,125
2018-02-10T10:24:46.231Z,140
2018-02-10T10:54:23.043Z,170
2018-02-10T10:55:23.764Z,170
2018-02-10T10:56:23.504Z,170
2018-02-10T10:57:23.323Z,170
2018-02-10T10:58:22.988Z,165
2018-02-10T10:59:23.220Z,160
2018-02-10T11:00:23.262Z,155
2018-02-10T11:01:22.946Z,150
2018-02-10T11:02:23.190Z,145
2018-02-10T11:03:23.297Z,145
2018-02-10T11:04:23.512Z,150
2018-02-10T11:05:23.155Z,145
2018-02-10T11:06:22.899Z,140
2018-02-10T11:07:23.396Z,135
2018-02-10T11:08:23.382Z,135
2018-02-10T11:09:23.122Z,130
2018-02-10T11:10:23.629Z,125
2018-02-10T11:11:22.605Z,135
2018-02-10T11:12:22.920Z,135
2018-02-10T11:13:22.836Z,135
2018-02-10T11:14:23.082Z,140
2018-02-10T11:15:23.419Z,135
2018-02-10T11:16:22.824Z,135
2018-02-10T11:17:22.689Z,130
2018-02-10T11:18:22.810Z,125
2018-02-10T11:19:22.814Z,120
2018-02-10T11:20:23.778Z,115
2018-02-10T11:21:22.533Z,110
2018-02-10T11:22:22.781Z,105
2018-02-10T11:23:23.012Z,100
2018-02-10T11:24:27.866Z,95
2018-02-10T11:25:24.101Z,95
2018-02-10T11:26:22.756Z,90
2018-02-10T11:27:22.534Z,90
2018-02-10T11:28:23.255Z,90
2018-02-10T11:29:22.735Z,90
2018-02-10T11:30:23.215Z,95
2018-02-10T11:31:22.450Z,95
2018-02-10T11:32:22.193Z,95
2018-02-10T11:33:22.693Z,95
2018-02-10T11:34:22.707Z,90
2018-02-10T11:35:22.746Z,90
2018-02-10T11:36:22.670Z,90
2018-02-10T11:37:22.667Z,90
2018-02-10T11:38:22.403Z,90
2018-02-10T11:39:22.452Z,90
2018-02-10T11:40:23.666Z,90
2018-02-10T11:41:22.630Z,90
2018-02-10T11:42:22.899Z,90
2018-02-10T11:43:22.624Z,90
2018-02-10T11:44:22.863Z,85
2018-02-10T11:45:23.396Z,85
2018-02-10T11:46:23.104Z,85
2018-02-10T11:47:22.859Z,90
2018-02-10T11:48:22.587Z,90
2018-02-10T11:49:22.603Z,90
2018-02-10T11:50:23.846Z,90
2018-02-10T11:51:22.566Z,90
2018-02-10T11:52:22.562Z,90
2018-02-10T11:53:23.042Z,85
2018-02-10T11:54:23.087Z,80
2018-02-10T11:55:23.023Z,80
2018-02-10T11:56:22.272Z,75
2018-02-10T11:57:22.766Z,75
2018-02-10T11:58:22.502Z,70
2018-02-10T11:59:22.756Z,70
2018-02-10T12:00:23.619Z,65
2018-02-10T12:01:22.796Z,65
2018-02-10T12:02:22.972Z,60
2018-02-10T12:03:21.967Z,60
2018-02-10T12:04:22.717Z,55
2018-02-10T12:05:23.006Z,55
2018-02-10T12:06:22.452Z,50
2018-02-10T12:07:22.685Z,50
2018-02-10T12:08:22.185Z,50
2018-02-10T12:09:22.552Z,50
2018-02-10T12:10:23.195Z,50
2018-02-10T12:11:22.914Z,50
2018-02-10T12:12:22.916Z,50
2018-02-10T12:13:21.891Z,50
2018-02-10T12:14:22.895Z,55
2018-02-10T12:15:23.362Z,55
2018-02-10T12:16:22.868Z,55
2018-02-10T12:17:22.617Z,55
2018-02-10T12:18:22.360Z,55
2018-02-10T12:19:22.859Z,55
2018-02-10T12:20:22.787Z,55
2018-02-10T12:21:22.585Z,55
2018-02-10T12:22:22.571Z,55
2018-02-10T12:23:22.325Z,65
2018-02-10T12:24:23.025Z,65
2018-02-10T12:25:23.957Z,65
2018-02-10T12:26:22.566Z,70
2018-02-10T12:27:22.539Z,70
2018-02-10T12:28:22.026Z,75
2018-02-10T12:29:22.259Z,80
2018-02-10T12:30:23.143Z,85
2018-02-10T12:31:22.518Z,95
2018-02-10T12:32:22.504Z,90
2018-02-10T12:33:22.751Z,90
2018-02-10T12:34:22.515Z,90
2018-02-10T12:35:23.168Z,90
2018-02-10T12:36:22.479Z,90
2018-02-10T12:37:23.548Z,90
2018-02-10T12:38:23.052Z,90
2018-02-10T12:39:24.088Z,95
2018-02-10T12:40:23.256Z,95
2018-02-10T12:41:22.865Z,100
2018-02-10T12:42:22.172Z,105
2018-02-10T12:43:21.930Z,110
2018-02-10T12:44:22.650Z,120
2018-02-10T12:45:22.749Z,125
2018-02-10T12:46:22.378Z,130
2018-02-10T12:47:22.126Z,135
2018-02-10T12:48:22.128Z,135
2018-02-10T12:49:22.384Z,140
2018-02-10T12:50:22.478Z,140
2018-02-10T12:51:22.341Z,140
2018-02-10T12:52:21.886Z,140
2018-02-10T12:53:22.079Z,140
2018-02-10T12:54:23.576Z,135
2018-02-10T12:55:23.297Z,135
2018-02-10T12:56:22.075Z,130
2018-02-10T12:57:22.051Z,135
2018-02-10T12:58:22.296Z,135
2018-02-10T12:59:22.023Z,135
2018-02-10T13:00:23.302Z,130
2018-02-10T13:01:21.522Z,130
2018-02-10T13:02:22.274Z,125
2018-02-10T13:03:21.772Z,125
2018-02-10T13:04:21.996Z,125
2018-02-10T13:05:22.615Z,115
2018-02-10T13:06:22.565Z,110
2018-02-10T13:07:21.970Z,105
2018-02-10T13:08:22.211Z,105
2018-02-10T13:09:22.195Z,100
2018-02-10T13:10:23.196Z,100
2018-02-10T13:11:21.957Z,100
2018-02-10T13:12:21.954Z,95
2018-02-10T13:13:22.187Z,95
2018-02-10T13:14:22.171Z,95
2018-02-10T13:15:23.751Z,100
2018-02-10T13:16:21.892Z,100
2018-02-10T13:17:21.698Z,100
2018-02-10T13:18:21.884Z,105
2018-02-10T13:19:22.397Z,100
2018-02-10T13:20:22.398Z,100
2018-02-10T13:21:22.114Z,100
2018-02-10T13:22:21.864Z,100
2018-02-10T13:23:21.619Z,100
2018-02-10T13:24:21.860Z,100
2018-02-10T13:25:22.717Z,100
2018-02-10T13:26:21.305Z,95
2018-02-10T13:27:22.457Z,95
2018-02-10T13:28:22.304Z,95
2018-02-10T13:29:21.551Z,95
2018-02-10T13:30:22.571Z,95
2018-02-10T13:31:22.035Z,90
2018-02-10T13:32:21.772Z,90
2018-02-10T13:33:21.786Z,90
2018-02-10T13:34:22.004Z,85
2018-02-10T13:35:22.371Z,80
2018-02-10T13:36:22.238Z,75
2018-02-10T13:37:21.730Z,75
2018-02-10T13:38:22.217Z,65
2018-02-10T13:39:21.722Z,60
2018-02-10T13:40:22.688Z,60
2018-02-10T13:41:21.946Z,55
2018-02-10T13:42:21.939Z,55
2018-02-10T13:43:21.958Z,55
2018-02-10T13:44:21.677Z,55
2018-02-10T13:45:23.096Z,55
2018-02-10T13:46:21.675Z,60
2018-02-10T13:47:21.920Z,60
2018-02-10T13:48:21.640Z,60
2018-02-10T13:49:21.889Z,60
2018-02-10T13:50:22.808Z,60
2018-02-10T13:51:21.864Z,60
2018-02-10T13:52:21.603Z,55
2018-02-10T13:53:21.662Z,55
2018-02-10T13:54:21.597Z,50
2018-02-10T13:55:25.621Z,50
2018-02-10T13:56:21.873Z,50
2018-02-10T13:57:21.560Z,50
2018-02-10T13:58:21.567Z,50
2018-02-10T13:59:21.803Z,50
2018-02-10T14:00:22.465Z,50
2018-02-10T14:01:21.847Z,50
2018-02-10T14:02:21.274Z,45
2018-02-10T14:03:21.873Z,45
2018-02-10T14:04:21.576Z,45
2018-02-10T14:05:22.533Z,40
2018-02-10T14:06:21.241Z,40
2018-02-10T14:07:22.014Z,40
2018-02-10T14:08:21.490Z,40
2018-02-10T14:09:21.721Z,35
2018-02-10T14:10:22.920Z,35
2018-02-10T14:11:21.550Z,35
2018-02-10T14:12:21.753Z,35
2018-02-10T14:13:21.697Z,35
2018-02-10T14:14:22.003Z,35
2018-02-10T14:15:22.275Z,40
2018-02-10T14:16:21.689Z,40
2018-02-10T14:17:21.652Z,45
2018-02-10T14:18:21.961Z,45
2018-02-10T14:19:21.166Z,45
2018-02-10T14:20:22.462Z,45
2018-02-10T14:21:21.452Z,45
2018-02-10T14:22:21.876Z,40
2018-02-10T14:23:21.600Z,35
2018-02-10T14:24:21.592Z,35
2018-02-10T14:25:22.511Z,35
2018-02-10T14:26:22.936Z,35
2018-02-10T14:27:21.059Z,30
2018-02-10T14:28:21.818Z,30
2018-02-10T14:29:20.796Z,30
2018-02-10T14:30:22.286Z,30
2018-02-10T14:31:21.788Z,30
2018-02-10T14:32:21.780Z,30
2018-02-10T14:33:21.530Z,30
2018-02-10T14:34:21.526Z,30
2018-02-10T14:35:23.214Z,25
2018-02-10T14:36:21.011Z,25
2018-02-10T14:37:21.478Z,25
2018-02-10T14:38:21.228Z,25
2018-02-10T14:39:21.492Z,25
2018-02-10T14:40:22.333Z,25
2018-02-10T14:41:22.400Z,25
2018-02-10T14:42:21.717Z,20
2018-02-10T14:43:21.191Z,20
2018-02-10T14:44:20.922Z,20
2018-02-10T14:45:21.479Z,20
2018-02-10T14:46:21.465Z,20
2018-02-10T14:47:20.893Z,20
2018-02-10T14:48:21.378Z,15
2018-02-10T14:49:21.378Z,20
2018-02-10T14:50:22.264Z,20
2018-02-10T14:51:21.644Z,20
2018-02-10T14:52:21.348Z,15
2018-02-10T14:53:21.080Z,15
2018-02-10T14:54:21.330Z,15
2018-02-10T14:55:22.322Z,15